Helchteren, Belgium
Current Conditions -  °F | °C
As of 10:25 AM on Friday 24 Oct 2014 (Local Time) from EBBL Reporting Station
Broken Clouds Broken Clouds  
Wind Chill: 52°   Ceiling: 10000
Heat Index: 52°   Visibility: 6mi
Dew Point: 45°   Wind: 7mph
Humidity: 76%   Direction: 200°SSW
Pressure: 30.12"   Gusts: NA
Location:  51.06°N, 5.38°E
Report Text: EBBL 240825Z 20006KT 9999 SCT050 BKN100 11/07 Q1020 BLU BLU
Loading
Personal Weather Stations






























Interactive Weather Map
Tropical Storm Tracking
New forecast layout! Learn more

10-Day Weather Forecast

Advertisements
Track Severe Weather on mobile